Flight Track Log - Related Links

Times and Time Zones

All times are in EDT time to prevent confusion due to time zone crossing. See the EGF4218 flight status page for this flight to view local times or setup timezone preferences in your user account.

Time Position Orientation Groundspeed Altitude Reporting Facility
EDT Latitude Longitude Course Direction KTS MPH feet Rate Location/Type
Tue 11:39:12 42.0000 -87.9500 203° Southwest 171 197 1,500  Level Chicago TRACON
Tue 11:41:00 41.7737 -88.2330 203° Southwest  Level Estimated
Tue 11:41:32 41.8892 -88.0531 215° Southwest 251 289 5,000  Level Chicago Center
Tue 11:42:00 41.7042 -88.3413 197° South  Level Estimated
Tue 11:42:34 41.8142 -88.0411 173° South 267 307 5,900  Level Chicago Center
Tue 11:43:00 41.6100 -88.2745 152° Southeast  Level FlightAware
Tue 11:43:36 41.7408 -88.0581 190° South 271 312 8,100  Level Chicago Center
Tue 11:44:00 41.5414 -88.3837 203° Southwest  Level Estimated
Tue 11:44:38 41.6664 -88.0875 196° South 280 322 10,000  Level Chicago Center
Tue 11:45:40 41.5711 -88.1214 195° South 295 339 11,900 1,161 Climbing Chicago Center
Tue 11:46:42 41.4847 -88.1542 196° South 321 369 12,400 435 Climbing Chicago Center
Tue 11:47:44 41.3875 -88.1878 195° South 373 429 12,800 484 Climbing Chicago Center
Tue 11:48:46 41.2633 -88.2436 199° South 396 456 13,400 683 Climbing Chicago Center
Tue 11:49:47 41.1581 -88.2914 199° South 403 464 14,200 780 Climbing Chicago Center
Tue 11:50:49 41.0517 -88.3400 199° South 405 466 15,000 823 Climbing Chicago Center
Tue 11:51:51 40.9439 -88.3894 199° South 410 472 15,900 823 Climbing Chicago Center
Tue 11:52:53 40.8369 -88.4369 199° South 410 472 16,700 871 Climbing Chicago Center
Tue 11:53:55 40.7072 -88.4936 198° South 413 475 17,700 871 Climbing Chicago Center
Tue 11:54:57 40.5989 -88.5403 198° South 412 474 18,500 823 Climbing Chicago Center
Tue 11:55:59 40.4906 -88.5858 198° South 411 473 19,400 823 Climbing Chicago Center
Tue 11:57:01 40.3844 -88.6328 199° South 420 483 20,200 774 Climbing Chicago Center
Tue 11:58:03 40.3022 -88.7306 222° Southwest 412 474 21,000 829 Climbing Chicago Center
Tue 11:59:04 40.2364 -88.8481 234° Southwest 398 458 21,900 878 Climbing Chicago Center
Tue 12:00:06 40.1522 -88.9853 231° Southwest 405 466 22,800 871 Climbing Chicago Center
Tue 12:01:08 40.0836 -89.0992 232° Southwest 402 463 23,700 763 Climbing Chicago Center
Tue 12:02:04 40.0289 -89.1928 233° Southwest 402 463 24,300 776 Climbing Kansas Center
Tue 12:03:04 39.9586 -89.3089 232° Southwest 404 465 25,200 877 Climbing Kansas Center
Tue 12:04:14 39.8753 -89.4425 231° Southwest 401 461 26,200 756 Climbing Chicago Center
Tue 12:05:11 39.8183 -89.5403 233° Southwest 405 466 26,800 821 Climbing Kansas Center
Tue 12:06:11 39.7331 -89.6783 231° Southwest 406 467 27,800 934 Climbing Kansas Center
Tue 12:07:13 39.6636 -89.7917 232° Southwest 406 467 28,700 810 Climbing Kansas Center
Tue 12:08:17 39.5933 -89.9067 232° Southwest 406 467 29,500 768 Climbing Kansas Center
Tue 12:09:18 39.5217 -90.0208 231° Southwest 409 471 30,300 774 Climbing Kansas Center
Tue 12:10:21 39.4506 -90.1369 232° Southwest 412 474 31,100 823 Climbing Kansas Center
Tue 12:11:22 39.3625 -90.2769 231° Southwest 418 481 32,000 443 Climbing Kansas Center
Tue 12:12:23 39.2869 -90.3975 231° Southwest 427 491 32,000  Level Kansas Center
Tue 12:13:27 39.2086 -90.5228 231° Southwest 444 511 32,000  Level Kansas Center
Tue 12:14:28 39.1297 -90.6489 231° Southwest 452 520 32,000  Level Kansas Center
Tue 12:15:29 39.0517 -90.7728 231° Southwest 451 519 32,000  Level Kansas Center
Tue 12:16:32 38.9536 -90.9244 230° Southwest 459 528 32,000  Level Kansas Center
Tue 12:17:33 38.8728 -91.0494 230° Southwest 461 531 32,000  Level Kansas Center
Tue 12:18:35 38.7933 -91.1739 231° Southwest 459 528 32,000  Level Kansas Center
Tue 12:19:38 38.7136 -91.2967 230° Southwest 455 524 32,000  Level Kansas Center
Tue 12:20:39 38.6344 -91.4231 231° Southwest 448 516 32,000  Level Kansas Center
Tue 12:21:43 38.5536 -91.5833 237° Southwest 451 519 32,000  Level Kansas Center
Tue 12:22:44 38.4892 -91.7181 239° Southwest 446 513 32,000  Level Kansas Center
Tue 12:23:47 38.4225 -91.8511 237° Southwest 445 512 32,000  Level Kansas Center
Tue 12:24:48 38.3569 -91.9831 238° Southwest 443 510 32,000  Level Kansas Center
Tue 12:25:49 38.2911 -92.1147 238° Southwest 444 511 32,000  Level Kansas Center
Tue 12:26:54 38.2253 -92.2458 237° Southwest 443 510 32,000  Level Kansas Center
Tue 12:27:54 38.1486 -92.3989 238° Southwest 447 514 32,000  Level Kansas Center
Tue 12:28:58 38.0828 -92.5336 238° Southwest 450 518 32,000  Level Kansas Center
Tue 12:29:58 38.0139 -92.6653 236° Southwest 451 519 32,000  Level Kansas Center
Tue 12:31:02 37.9472 -92.7956 237° Southwest 447 514 32,000  Level Kansas Center
Tue 12:32:02 37.8806 -92.9264 237° Southwest 443 510 32,000  Level Kansas Center
Tue 12:33:05 37.7992 -93.0847 237° Southwest 446 513 32,000  Level Kansas Center
Tue 12:34:06 37.7308 -93.2169 237° Southwest 448 516 32,000  Level Kansas Center
Tue 12:35:10 37.6622 -93.3497 237° Southwest 450 518 32,000  Level Kansas Center
Tue 12:36:10 37.5942 -93.4825 237° Southwest 451 519 32,000  Level Kansas Center
Tue 12:37:11 37.5244 -93.6142 236° Southwest 452 520 32,000  Level Kansas Center
Tue 12:38:15 37.4561 -93.7461 237° Southwest 450 518 32,000  Level Kansas Center
Tue 12:39:16 37.3742 -93.9031 237° Southwest 448 516 32,000  Level Kansas Center
Tue 12:40:19 37.3064 -94.0342 237° Southwest 447 514 32,000 -387 Level Kansas Center
Tue 12:41:20 37.2392 -94.1561 235° Southwest 448 516 31,200 -1,113 Descending Kansas Center
Tue 12:42:23 37.1722 -94.2864 237° Southwest 445 512 29,700 -1,452 Descending Kansas Center
Tue 12:43:24 37.1025 -94.4169 236° Southwest 448 516 28,200 -1,619 Descending Kansas Center
Tue 12:44:29 37.0164 -94.5756 236° Southwest 457 526 26,300 -1,619 Descending Kansas Center
Tue 12:45:30 36.9467 -94.7061 236° Southwest 453 521 24,800 -1,488 Descending Kansas Center
Tue 12:46:30 36.8764 -94.8350 236° Southwest 451 519 23,300 -1,452 Descending Kansas Center
Tue 12:47:34 36.8081 -94.9619 236° Southwest 444 511 21,800 -1,488 Descending Kansas Center
Tue 12:48:31 36.7369 -95.0856 234° Southwest 432 497 20,300 -1,585 Descending Kansas Center
Tue 12:49:20 36.6811 -95.1872 236° Southwest 422 486 19,000 -1,433 Descending Kansas Center
Tue 12:49:38 36.6750 -95.2047 246° West 426 490 18,700 -1,655 Descending Kansas Center
Tue 12:50:18 36.6069 -95.2942 227° Southwest 414 476 17,400 -1,672 Descending Kansas Center
Tue 12:50:39 36.5861 -95.3197 225° Southwest 412 474 17,000 -2,435 Descending Kansas Center
Tue 12:51:27 36.5197 -95.3972 223° Southwest 398 458 14,600 -3,094 Descending Kansas Center
Tue 12:51:43 36.5019 -95.4211 227° Southwest 400 460 13,700 -2,852 Descending Kansas Center
Tue 12:52:28 36.4483 -95.4925 227° Southwest 376 433 11,700 -2,262 Descending Kansas Center
Tue 12:52:44 36.4428 -95.5183 255° West 380 437 11,400 -1,672 Descending Kansas Center
Tue 12:53:29 36.4253 -95.6125 257° West 320 368 10,000 -1,500 Descending Kansas Center
Tue 12:53:48 36.4231 -95.6253 258° West 326 375 9,800 -1,552 Descending Kansas Center
Tue 12:54:27 36.4103 -95.7056 259° West 257 296 8,500 -2,000 Descending Kansas Center
Tue 12:54:48 36.4064 -95.7342 260° West 271 312 7,800 -1,826 Descending Kansas Center
Tue 12:55:36 36.3914 -95.8014 255° West 261 300 6,400 -1,750 Descending Kansas Center

Login

Don't have an account? Register now (free) for customized features, flight alerts, and more!